Old Crow, Canada
Current Conditions -  °F | °C
As of 6:00 PM on Sunday 25 Jan 2015 (Local Time) from CYOC Reporting Station
Light Snow Light Snow  
Wind Chill: -35°   Ceiling: 1500
Heat Index: -15°   Visibility: 1.5mi
Dew Point: -24°   Wind: 10mph
Humidity: 64%   Direction: 40°NE
Pressure: 30"   Gusts: NA
Location:  67.57°N, 139.82°W
Report Text: CYOC 260200Z 04009KT 1 1/2SM -SN DRSN BKN015 OVC020 M26/M31 A3000 RMK SN3ST4ST1 OCNL BLSN VIS NE 3/4 CLIMAT -26.2/-27.2/2.8CM 2.4 MWE LAST OBS/NEXT 261400 UTC SLP197
Loading
Personal Weather Stations






























Interactive Weather Map New forecast layout! Learn more

10-Day Weather Forecast

Advertisements
Track Severe Weather on mobile